createdAt,value
2018-08-30T00:00:20.796Z,82.15
2018-08-30T00:01:24.967Z,82.02
2018-08-30T00:02:29.141Z,81.33
2018-08-30T00:03:33.307Z,81.71
2018-08-30T00:04:37.523Z,81.90
2018-08-30T00:05:42.239Z,82.05
2018-08-30T00:06:46.431Z,81.24
2018-08-30T00:07:50.648Z,81.24
2018-08-30T00:08:54.789Z,81.62
2018-08-30T00:09:58.939Z,81.17
2018-08-30T00:11:03.098Z,80.97
2018-08-30T00:12:07.536Z,81.60
2018-08-30T00:13:11.719Z,81.21
2018-08-30T00:14:15.966Z,81.41
2018-08-30T00:15:20.115Z,81.47
2018-08-30T00:16:24.377Z,81.17
2018-08-30T00:17:28.497Z,81.17
2018-08-30T00:18:32.696Z,81.62
2018-08-30T00:19:36.898Z,81.02
2018-08-30T00:20:41.323Z,80.97
2018-08-30T00:21:45.497Z,81.15
2018-08-30T00:22:49.727Z,81.18
2018-08-30T00:23:53.893Z,80.89
2018-08-30T00:24:58.256Z,81.29
2018-08-30T00:26:02.620Z,81.10
2018-08-30T00:27:07.066Z,80.54
2018-08-30T00:28:11.270Z,80.64
2018-08-30T00:29:15.443Z,80.63
2018-08-30T00:30:19.677Z,80.84
2018-08-30T00:31:23.834Z,80.43
2018-08-30T00:32:28.115Z,80.21
2018-08-30T00:33:32.285Z,80.71
2018-08-30T00:34:36.471Z,80.00
2018-08-30T00:35:41.648Z,80.06
2018-08-30T00:36:45.816Z,80.54
2018-08-30T00:37:50.132Z,80.37
2018-08-30T00:38:54.305Z,80.39
2018-08-30T00:39:58.507Z,79.90
2018-08-30T00:41:02.659Z,79.82
2018-08-30T00:42:06.859Z,79.97
2018-08-30T00:43:11.085Z,80.38
2018-08-30T00:44:15.231Z,79.71
2018-08-30T00:45:19.691Z,80.00
2018-08-30T00:46:23.846Z,80.16
2018-08-30T00:47:28.059Z,79.56
2018-08-30T00:48:32.318Z,80.14
2018-08-30T00:49:36.628Z,79.97
2018-08-30T00:50:41.019Z,80.13
2018-08-30T00:51:45.209Z,79.79
2018-08-30T00:52:49.399Z,80.09
2018-08-30T00:53:53.620Z,79.98
2018-08-30T00:54:58.007Z,79.54
2018-08-30T00:56:02.183Z,79.94
2018-08-30T00:57:06.439Z,79.80
2018-08-30T00:58:10.613Z,79.87
2018-08-30T00:59:14.750Z,79.98
2018-08-30T01:00:18.984Z,79.45
2018-08-30T01:01:23.226Z,79.26
2018-08-30T01:02:27.422Z,79.88
2018-08-30T01:03:31.591Z,79.46
2018-08-30T01:04:35.762Z,79.65
2018-08-30T01:05:39.918Z,79.36
2018-08-30T01:06:44.144Z,79.43
2018-08-30T01:07:51.312Z,79.93
2018-08-30T01:08:55.555Z,80.14
2018-08-30T01:09:59.714Z,79.96
2018-08-30T01:11:03.997Z,79.58
2018-08-30T01:12:08.166Z,79.72
2018-08-30T01:13:12.589Z,79.40
2018-08-30T01:14:16.749Z,79.95
2018-08-30T01:15:21.571Z,79.44
2018-08-30T01:16:25.736Z,80.06
2018-08-30T01:17:30.031Z,79.77
2018-08-30T01:18:34.208Z,79.96
2018-08-30T01:19:38.432Z,79.97
2018-08-30T01:20:42.600Z,79.17
2018-08-30T01:21:46.783Z,79.97
2018-08-30T01:22:51.049Z,79.38
2018-08-30T01:23:55.215Z,79.84
2018-08-30T01:24:59.403Z,79.42
2018-08-30T01:26:03.582Z,79.90
2018-08-30T01:27:14.395Z,80.02
2018-08-30T01:28:18.573Z,79.52
2018-08-30T01:29:22.743Z,79.88
2018-08-30T01:30:26.923Z,79.48
2018-08-30T01:31:31.142Z,79.72
2018-08-30T01:32:35.613Z,79.84
2018-08-30T01:33:39.876Z,79.58
2018-08-30T01:34:44.049Z,79.54
2018-08-30T01:35:48.270Z,79.11
2018-08-30T01:36:52.419Z,79.12
2018-08-30T01:37:56.584Z,78.93
2018-08-30T01:39:00.771Z,79.58
2018-08-30T01:40:05.192Z,79.27
2018-08-30T01:41:09.334Z,79.48
2018-08-30T01:42:13.672Z,79.66
2018-08-30T01:43:17.845Z,79.38
2018-08-30T01:44:22.032Z,78.84
2018-08-30T01:45:26.187Z,79.52
2018-08-30T01:46:30.628Z,79.30
2018-08-30T01:47:34.794Z,78.81
2018-08-30T01:48:38.945Z,79.00
2018-08-30T01:49:43.346Z,78.60
2018-08-30T01:50:47.502Z,78.66
2018-08-30T01:51:51.735Z,79.22
2018-08-30T01:52:55.910Z,79.18
2018-08-30T01:54:00.112Z,78.64
2018-08-30T01:55:04.534Z,78.99
2018-08-30T01:56:08.707Z,78.63
2018-08-30T01:57:13.141Z,78.99
2018-08-30T01:58:17.312Z,79.19
2018-08-30T01:59:21.488Z,78.73
2018-08-30T02:00:25.704Z,78.69
2018-08-30T02:01:29.837Z,78.55
2018-08-30T02:02:34.005Z,78.74
2018-08-30T02:03:38.172Z,78.61
2018-08-30T02:04:42.482Z,78.68
2018-08-30T02:05:46.687Z,79.09
2018-08-30T02:06:50.867Z,79.13
2018-08-30T02:07:55.168Z,78.94
2018-08-30T02:08:59.564Z,79.17
2018-08-30T02:10:03.786Z,78.71
2018-08-30T02:11:07.977Z,78.67
2018-08-30T02:12:12.333Z,79.00
2018-08-30T02:13:16.506Z,78.66
2018-08-30T02:14:20.799Z,78.69
2018-08-30T02:15:25.109Z,78.74
2018-08-30T02:16:29.498Z,79.28
2018-08-30T02:17:33.707Z,79.11
2018-08-30T02:18:37.870Z,78.66
2018-08-30T02:19:42.018Z,78.79
2018-08-30T02:20:46.183Z,78.68
2018-08-30T02:21:50.375Z,79.21
2018-08-30T02:22:54.506Z,78.60
2018-08-30T02:23:58.655Z,78.72
2018-08-30T02:25:02.839Z,78.51
2018-08-30T02:26:07.185Z,79.21
2018-08-30T02:27:11.381Z,78.37
2018-08-30T02:28:15.518Z,78.76
2018-08-30T02:29:19.976Z,78.69
2018-08-30T02:30:24.145Z,78.36
2018-08-30T02:31:28.347Z,78.71
2018-08-30T02:32:32.523Z,78.91
2018-08-30T02:33:36.749Z,78.48
2018-08-30T02:34:40.920Z,78.73
2018-08-30T02:35:45.096Z,78.98
2018-08-30T02:36:49.294Z,79.17
2018-08-30T02:37:53.499Z,79.08
2018-08-30T02:38:57.894Z,78.38
2018-08-30T02:40:02.091Z,78.58
2018-08-30T02:41:06.379Z,79.12
2018-08-30T02:42:10.561Z,78.68
2018-08-30T02:43:14.730Z,79.20
2018-08-30T02:44:19.142Z,79.11
2018-08-30T02:45:23.499Z,78.55
2018-08-30T02:46:27.655Z,79.11
2018-08-30T02:47:31.980Z,78.51
2018-08-30T02:48:36.171Z,78.49
2018-08-30T02:49:40.371Z,78.87
2018-08-30T02:50:44.694Z,79.01
2018-08-30T02:51:48.894Z,79.25
2018-08-30T02:52:53.423Z,79.45
2018-08-30T02:53:57.644Z,79.19
2018-08-30T02:55:01.888Z,78.96
2018-08-30T02:56:06.359Z,78.59
2018-08-30T02:57:10.541Z,79.04
2018-08-30T02:58:14.718Z,79.53
2018-08-30T02:59:18.879Z,78.72
2018-08-30T03:00:23.824Z,78.99
2018-08-30T03:01:28.122Z,79.24
2018-08-30T03:02:34.027Z,79.39
2018-08-30T03:03:38.235Z,79.07
2018-08-30T03:04:42.443Z,78.81
2018-08-30T03:05:46.771Z,78.95
2018-08-30T03:06:50.927Z,79.03
2018-08-30T03:07:55.072Z,79.51
2018-08-30T03:08:59.260Z,78.91
2018-08-30T03:10:03.471Z,78.96
2018-08-30T03:11:07.916Z,79.54
2018-08-30T03:12:12.074Z,78.99
2018-08-30T03:13:16.283Z,79.15
2018-08-30T03:14:20.444Z,79.86
2018-08-30T03:15:24.670Z,79.32
2018-08-30T03:16:28.835Z,79.92
2018-08-30T03:17:33.080Z,79.13
2018-08-30T03:18:37.287Z,79.86
2018-08-30T03:19:41.522Z,79.41
2018-08-30T03:20:45.729Z,78.89
2018-08-30T03:21:49.893Z,79.44
2018-08-30T03:22:54.124Z,79.76
2018-08-30T03:23:58.287Z,79.72
2018-08-30T03:25:02.679Z,79.66
2018-08-30T03:26:07.429Z,79.29
2018-08-30T03:27:11.570Z,80.01
2018-08-30T03:28:15.780Z,79.75
2018-08-30T03:29:20.053Z,79.47
2018-08-30T03:30:24.330Z,79.76
2018-08-30T03:31:28.413Z,79.98
2018-08-30T03:32:32.579Z,79.16
2018-08-30T03:33:36.714Z,79.53
2018-08-30T03:34:40.977Z,79.91
2018-08-30T03:35:45.356Z,79.49
2018-08-30T03:36:49.735Z,79.40
2018-08-30T03:37:53.888Z,79.48
2018-08-30T03:38:58.104Z,79.10
2018-08-30T03:40:02.285Z,79.38
2018-08-30T03:41:06.747Z,79.35
2018-08-30T03:42:11.130Z,79.21
2018-08-30T03:43:15.263Z,79.33
2018-08-30T03:44:19.443Z,79.21
2018-08-30T03:45:23.678Z,79.85
2018-08-30T03:46:27.996Z,79.73
2018-08-30T03:47:32.797Z,79.06
2018-08-30T03:48:36.962Z,79.78
2018-08-30T03:49:41.555Z,79.09
2018-08-30T03:50:45.844Z,79.17
2018-08-30T03:51:50.004Z,79.17
2018-08-30T03:52:54.295Z,79.17
2018-08-30T03:53:58.511Z,79.65
2018-08-30T03:55:02.955Z,78.86
2018-08-30T03:56:07.331Z,79.05
2018-08-30T03:57:11.491Z,79.13
2018-08-30T03:58:15.720Z,79.60
2018-08-30T03:59:19.891Z,79.44
2018-08-30T04:00:24.134Z,79.67
2018-08-30T04:01:28.327Z,79.08
2018-08-30T04:02:32.531Z,79.82
2018-08-30T04:03:36.731Z,79.47
2018-08-30T04:04:40.974Z,79.56
2018-08-30T04:05:45.130Z,78.85
2018-08-30T04:06:49.330Z,79.38
2018-08-30T04:07:53.588Z,79.54
2018-08-30T04:08:57.800Z,79.53
2018-08-30T04:10:02.103Z,78.85
2018-08-30T04:11:06.477Z,79.58
2018-08-30T04:12:10.661Z,78.88
2018-08-30T04:13:14.925Z,79.16
2018-08-30T04:14:19.216Z,78.83
2018-08-30T04:15:23.408Z,78.91
2018-08-30T04:16:27.583Z,79.40
2018-08-30T04:17:31.746Z,79.42
2018-08-30T04:18:35.945Z,78.84
2018-08-30T04:19:40.166Z,78.79
2018-08-30T04:20:44.357Z,78.74
2018-08-30T04:21:48.510Z,79.35
2018-08-30T04:22:52.699Z,79.27
2018-08-30T04:23:56.907Z,78.67
2018-08-30T04:25:01.107Z,78.94
2018-08-30T04:26:05.748Z,78.76
2018-08-30T04:27:09.945Z,79.27
2018-08-30T04:28:14.112Z,78.60
2018-08-30T04:29:18.284Z,78.58
2018-08-30T04:30:22.511Z,78.68
2018-08-30T04:31:27.125Z,79.33
2018-08-30T04:32:31.270Z,79.30
2018-08-30T04:33:35.655Z,79.13
2018-08-30T04:34:39.967Z,78.77
2018-08-30T04:35:44.390Z,78.80
2018-08-30T04:36:48.569Z,78.59
2018-08-30T04:37:52.770Z,79.44
2018-08-30T04:38:57.864Z,78.84
2018-08-30T04:40:02.088Z,78.69
2018-08-30T04:41:06.536Z,79.11
2018-08-30T04:42:10.986Z,78.64
2018-08-30T04:43:15.260Z,79.15
2018-08-30T04:44:19.448Z,79.10
2018-08-30T04:45:23.687Z,78.39
2018-08-30T04:46:27.903Z,78.89
2018-08-30T04:47:32.124Z,78.26
2018-08-30T04:48:36.845Z,78.47
2018-08-30T04:49:41.140Z,78.18
2018-08-30T04:50:45.320Z,78.12
2018-08-30T04:51:49.510Z,78.59
2018-08-30T04:52:53.702Z,78.98
2018-08-30T04:53:58.022Z,78.51
2018-08-30T04:55:02.448Z,78.74
2018-08-30T04:56:06.893Z,78.75
2018-08-30T04:57:11.105Z,78.40
2018-08-30T04:58:15.295Z,78.49
2018-08-30T04:59:19.477Z,78.73
2018-08-30T05:00:23.681Z,78.24
2018-08-30T05:01:27.839Z,78.76
2018-08-30T05:02:32.049Z,78.36
2018-08-30T05:03:36.231Z,78.63
2018-08-30T05:04:40.448Z,78.73
2018-08-30T05:05:44.658Z,78.78
2018-08-30T05:06:48.838Z,78.41
2018-08-30T05:07:53.067Z,78.86
2018-08-30T05:08:57.216Z,78.28
2018-08-30T05:10:01.563Z,78.90
2018-08-30T05:11:05.719Z,78.55
2018-08-30T05:12:09.888Z,78.18
2018-08-30T05:13:14.197Z,78.42
2018-08-30T05:14:18.357Z,78.57
2018-08-30T05:15:22.587Z,78.39
2018-08-30T05:16:26.800Z,78.85
2018-08-30T05:17:30.930Z,78.78
2018-08-30T05:18:35.146Z,78.84
2018-08-30T05:19:39.427Z,78.98
2018-08-30T05:20:43.570Z,78.70
2018-08-30T05:21:47.725Z,78.90
2018-08-30T05:22:51.982Z,78.60
2018-08-30T05:23:56.350Z,78.72
2018-08-30T05:25:00.726Z,78.92
2018-08-30T05:26:04.965Z,78.52
2018-08-30T05:27:09.118Z,78.89
2018-08-30T05:28:13.297Z,78.30
2018-08-30T05:29:19.302Z,78.21
2018-08-30T05:30:23.547Z,78.47
2018-08-30T05:31:27.723Z,78.03
2018-08-30T05:32:32.141Z,78.19
2018-08-30T05:33:36.299Z,78.02
2018-08-30T05:34:40.529Z,78.04
2018-08-30T05:35:44.766Z,78.14
2018-08-30T05:36:48.930Z,78.15
2018-08-30T05:37:53.121Z,78.87
2018-08-30T05:39:04.367Z,78.83
2018-08-30T05:40:08.579Z,78.42
2018-08-30T05:41:12.783Z,78.67
2018-08-30T05:42:16.963Z,78.82
2018-08-30T05:43:21.361Z,78.82
2018-08-30T05:44:25.872Z,78.52
2018-08-30T05:45:30.067Z,78.09
2018-08-30T05:46:34.283Z,78.36
2018-08-30T05:47:38.467Z,78.52
2018-08-30T05:48:42.628Z,78.72
2018-08-30T05:49:46.798Z,78.08
2018-08-30T05:50:51.188Z,78.51
2018-08-30T05:51:55.396Z,78.08
2018-08-30T05:52:59.562Z,78.85
2018-08-30T05:54:03.743Z,78.25
2018-08-30T05:55:07.939Z,78.15
2018-08-30T05:56:12.324Z,78.57
2018-08-30T05:57:16.541Z,78.70
2018-08-30T05:58:20.751Z,78.01
2018-08-30T05:59:25.362Z,77.86
2018-08-30T06:00:29.564Z,77.87
2018-08-30T06:01:33.832Z,77.97
2018-08-30T06:02:37.999Z,78.19
2018-08-30T06:03:42.180Z,77.87
2018-08-30T06:04:46.344Z,77.97
2018-08-30T06:05:50.639Z,78.60
2018-08-30T06:06:54.837Z,78.59
2018-08-30T06:07:59.021Z,78.36
2018-08-30T06:09:03.275Z,78.14
2018-08-30T06:10:07.497Z,78.07
2018-08-30T06:11:11.679Z,77.91
2018-08-30T06:12:15.867Z,77.47
2018-08-30T06:13:20.048Z,77.98
2018-08-30T06:14:24.299Z,78.12
2018-08-30T06:15:28.610Z,77.30
2018-08-30T06:16:34.142Z,77.22
2018-08-30T06:17:39.254Z,77.69
2018-08-30T06:18:43.972Z,77.50
2018-08-30T06:19:48.431Z,77.66
2018-08-30T06:20:52.806Z,77.29
2018-08-30T06:21:58.091Z,77.45
2018-08-30T06:23:02.696Z,77.57
2018-08-30T06:24:07.781Z,77.45
2018-08-30T06:25:12.003Z,76.87
2018-08-30T06:26:16.918Z,77.12
2018-08-30T06:27:22.224Z,77.43
2018-08-30T06:28:27.599Z,76.79
2018-08-30T06:29:33.548Z,76.63
2018-08-30T06:30:38.761Z,77.14
2018-08-30T06:31:43.038Z,76.93
2018-08-30T06:32:47.306Z,76.64
2018-08-30T06:33:51.652Z,77.23
2018-08-30T06:34:56.012Z,77.16
2018-08-30T06:36:01.867Z,76.45
2018-08-30T06:37:08.592Z,77.03
2018-08-30T06:38:12.931Z,76.57
2018-08-30T06:39:17.595Z,76.94
2018-08-30T06:40:22.130Z,76.70
2018-08-30T06:41:26.870Z,76.48
2018-08-30T06:42:32.180Z,76.89
2018-08-30T06:43:37.331Z,76.31
2018-08-30T06:44:41.841Z,76.45
2018-08-30T06:45:48.984Z,76.08
2018-08-30T06:46:54.262Z,76.55
2018-08-30T06:47:58.495Z,76.16
2018-08-30T06:49:02.810Z,76.52
2018-08-30T06:50:07.933Z,76.07
2018-08-30T06:51:13.960Z,76.57
2018-08-30T06:52:18.262Z,76.07
2018-08-30T06:53:22.496Z,75.73
2018-08-30T06:54:26.803Z,75.80
2018-08-30T06:55:31.415Z,75.71
2018-08-30T06:56:35.827Z,75.41
2018-08-30T06:57:41.144Z,76.18
2018-08-30T06:58:45.652Z,75.37
2018-08-30T06:59:50.134Z,75.54
2018-08-30T07:00:54.736Z,75.88
2018-08-30T07:02:00.181Z,75.64
2018-08-30T07:03:05.474Z,75.35
2018-08-30T07:04:11.488Z,75.48
2018-08-30T07:05:16.157Z,75.14
2018-08-30T07:06:20.727Z,74.96
2018-08-30T07:07:25.281Z,75.29
2018-08-30T07:08:29.931Z,75.23
2018-08-30T07:09:34.562Z,75.57
2018-08-30T07:10:39.757Z,74.83
2018-08-30T07:11:44.708Z,75.26
2018-08-30T07:12:49.134Z,74.54
2018-08-30T07:13:53.884Z,75.01
2018-08-30T07:14:58.592Z,75.30
2018-08-30T07:16:03.554Z,74.92
2018-08-30T07:17:08.498Z,75.03
2018-08-30T07:18:13.760Z,74.74
2018-08-30T07:19:19.012Z,75.04
2018-08-30T07:20:23.940Z,74.55
2018-08-30T07:21:28.129Z,74.29
2018-08-30T07:22:32.327Z,73.87
2018-08-30T07:23:37.808Z,74.17
2018-08-30T07:24:42.597Z,73.97
2018-08-30T07:25:46.889Z,74.00
2018-08-30T07:26:52.368Z,74.32
2018-08-30T07:27:58.064Z,73.73
2018-08-30T07:29:03.458Z,73.26
2018-08-30T07:30:11.885Z,73.91
2018-08-30T07:31:17.355Z,72.97
2018-08-30T07:32:23.886Z,72.85
2018-08-30T07:33:30.241Z,73.12
2018-08-30T07:34:34.479Z,73.38
2018-08-30T07:35:38.721Z,73.36
2018-08-30T07:36:42.908Z,73.04
2018-08-30T07:37:47.112Z,73.41
2018-08-30T07:38:51.273Z,73.50
2018-08-30T07:39:55.452Z,72.70
2018-08-30T07:40:59.632Z,73.22
2018-08-30T07:42:03.829Z,73.03
2018-08-30T07:43:07.995Z,72.99
2018-08-30T07:44:12.777Z,73.14
2018-08-30T07:45:17.163Z,72.39
2018-08-30T07:46:21.303Z,72.30
2018-08-30T07:47:25.492Z,72.38
2018-08-30T07:48:29.653Z,72.47
2018-08-30T07:49:33.828Z,72.63
2018-08-30T07:50:38.025Z,72.12
2018-08-30T07:51:42.211Z,72.40
2018-08-30T07:52:46.379Z,71.74
2018-08-30T07:53:50.720Z,71.87
2018-08-30T07:54:55.215Z,71.38
2018-08-30T07:55:59.347Z,71.53
2018-08-30T07:57:03.802Z,70.69
2018-08-30T07:58:08.036Z,71.01
2018-08-30T07:59:12.241Z,71.75
2018-08-30T08:00:17.560Z,71.22
2018-08-30T08:01:21.743Z,71.61
2018-08-30T08:02:25.920Z,71.59
2018-08-30T08:03:30.115Z,71.00
2018-08-30T08:04:34.311Z,70.97
2018-08-30T08:05:38.551Z,71.46
2018-08-30T08:06:42.800Z,70.84
2018-08-30T08:07:47.113Z,71.09
2018-08-30T08:08:51.327Z,71.27
2018-08-30T08:09:55.524Z,71.60
2018-08-30T08:10:59.736Z,70.97
2018-08-30T08:12:04.141Z,71.27
2018-08-30T08:13:08.340Z,71.07
2018-08-30T08:14:12.544Z,71.58
2018-08-30T08:15:16.783Z,71.30
2018-08-30T08:16:21.212Z,71.27
2018-08-30T08:17:25.466Z,70.92
2018-08-30T08:18:29.802Z,70.09
2018-08-30T08:19:34.247Z,70.10
2018-08-30T08:20:38.800Z,69.58
2018-08-30T08:21:43.003Z,69.64
2018-08-30T08:22:47.309Z,69.45
2018-08-30T08:23:51.448Z,68.62
2018-08-30T08:24:55.626Z,68.39
2018-08-30T08:25:59.830Z,69.02
2018-08-30T08:27:04.136Z,68.72
2018-08-30T08:28:09.024Z,68.22
2018-08-30T08:29:13.211Z,68.37
2018-08-30T08:30:17.414Z,67.82
2018-08-30T08:31:21.615Z,68.04
2018-08-30T08:32:25.830Z,68.09
2018-08-30T08:33:30.107Z,68.28
2018-08-30T08:34:34.396Z,67.49
2018-08-30T08:35:38.693Z,67.90
2018-08-30T08:36:42.897Z,67.79
2018-08-30T08:37:47.115Z,67.98
2018-08-30T08:38:51.294Z,67.63
2018-08-30T08:39:55.515Z,67.93
2018-08-30T08:41:00.074Z,67.43
2018-08-30T08:42:04.300Z,67.39
2018-08-30T08:43:08.630Z,67.69
2018-08-30T08:44:12.802Z,67.01
2018-08-30T08:45:17.059Z,67.02
2018-08-30T08:46:21.259Z,66.99
2018-08-30T08:47:25.420Z,66.72
2018-08-30T08:48:29.663Z,66.79
2018-08-30T08:49:33.903Z,65.88
2018-08-30T08:50:38.090Z,65.84
2018-08-30T08:51:42.299Z,65.80
2018-08-30T08:52:46.523Z,66.34
2018-08-30T08:53:50.868Z,65.94
2018-08-30T08:54:57.050Z,65.67
2018-08-30T08:56:01.291Z,65.41
2018-08-30T08:57:05.801Z,65.08
2018-08-30T08:58:10.107Z,65.32
2018-08-30T08:59:14.441Z,65.65
2018-08-30T09:00:18.586Z,65.26
2018-08-30T09:01:22.755Z,65.29
2018-08-30T09:02:26.905Z,64.86
2018-08-30T09:03:31.120Z,64.52
2018-08-30T09:04:35.408Z,64.31
2018-08-30T09:05:40.328Z,64.00
2018-08-30T09:06:44.535Z,64.45
2018-08-30T09:07:49.083Z,64.12
2018-08-30T09:08:53.250Z,63.33
2018-08-30T09:09:58.260Z,63.26
2018-08-30T09:11:02.575Z,63.07
2018-08-30T09:12:06.767Z,63.57
2018-08-30T09:13:10.982Z,62.89
2018-08-30T09:14:15.271Z,63.34
2018-08-30T09:15:19.462Z,62.66
2018-08-30T09:16:23.655Z,62.82
2018-08-30T09:17:27.795Z,63.18
2018-08-30T09:18:32.128Z,62.43
2018-08-30T09:19:36.259Z,63.13
2018-08-30T09:20:40.490Z,62.50
2018-08-30T09:21:44.642Z,62.93
2018-08-30T09:22:48.790Z,62.32
2018-08-30T09:23:53.002Z,62.03
2018-08-30T09:24:57.138Z,61.67
2018-08-30T09:26:01.315Z,62.05
2018-08-30T09:27:05.532Z,62.13
2018-08-30T09:28:09.799Z,62.17
2018-08-30T09:29:13.966Z,62.33
2018-08-30T09:30:18.100Z,61.82
2018-08-30T09:31:22.552Z,61.54
2018-08-30T09:32:26.902Z,61.93
2018-08-30T09:33:31.073Z,61.33
2018-08-30T09:34:35.378Z,61.54
2018-08-30T09:35:39.628Z,61.56
2018-08-30T09:36:43.813Z,61.20
2018-08-30T09:37:47.951Z,60.35
2018-08-30T09:38:52.167Z,60.65
2018-08-30T09:39:56.307Z,60.66
2018-08-30T09:41:00.633Z,60.71
2018-08-30T09:42:04.941Z,60.90
2018-08-30T09:43:09.311Z,60.06
2018-08-30T09:44:13.515Z,59.72
2018-08-30T09:45:17.684Z,59.49
2018-08-30T09:46:21.861Z,59.35
2018-08-30T09:47:26.051Z,59.83
2018-08-30T09:48:30.396Z,59.30
2018-08-30T09:49:34.575Z,60.14
2018-08-30T09:50:38.715Z,59.61
2018-08-30T09:51:42.904Z,59.91
2018-08-30T09:52:47.128Z,59.70
2018-08-30T09:53:51.484Z,59.72
2018-08-30T09:54:55.614Z,60.26
2018-08-30T09:55:59.785Z,60.20
2018-08-30T09:57:04.122Z,59.89
2018-08-30T09:58:08.583Z,59.26
2018-08-30T09:59:13.226Z,59.12
2018-08-30T10:00:22.880Z,59.68
2018-08-30T10:01:32.351Z,59.41
2018-08-30T10:02:56.043Z,58.60
2018-08-30T10:04:00.319Z,58.30
2018-08-30T10:05:04.494Z,58.09
2018-08-30T10:06:08.686Z,57.17
2018-08-30T10:07:13.506Z,56.91
2018-08-30T10:08:17.666Z,57.29
2018-08-30T10:09:21.906Z,57.11
2018-08-30T10:10:26.466Z,56.81
2018-08-30T10:11:30.620Z,56.30
2018-08-30T10:12:34.940Z,55.73
2018-08-30T10:13:39.113Z,55.19
2018-08-30T10:14:43.659Z,54.95
2018-08-30T10:15:47.867Z,55.30
2018-08-30T10:16:52.068Z,54.85
2018-08-30T10:17:56.214Z,54.96
2018-08-30T10:19:00.379Z,54.82
2018-08-30T10:20:04.684Z,55.22
2018-08-30T10:21:08.826Z,55.55
2018-08-30T10:22:13.062Z,55.29
2018-08-30T10:23:17.300Z,54.39
2018-08-30T10:24:21.496Z,54.52
2018-08-30T10:25:25.743Z,54.28
2018-08-30T10:26:29.868Z,54.46
2018-08-30T10:27:34.018Z,54.84
2018-08-30T10:28:38.164Z,54.73
2018-08-30T10:29:42.323Z,53.79
2018-08-30T10:30:46.519Z,54.63
2018-08-30T10:31:50.723Z,54.28
2018-08-30T10:32:54.922Z,54.16
2018-08-30T10:33:59.085Z,53.35
2018-08-30T10:35:04.539Z,53.48
2018-08-30T10:36:08.763Z,53.47
2018-08-30T10:37:12.907Z,53.32
2018-08-30T10:38:17.071Z,52.97
2018-08-30T10:39:21.395Z,53.27
2018-08-30T10:40:25.595Z,52.44
2018-08-30T10:41:29.810Z,53.21
2018-08-30T10:42:34.007Z,53.28
2018-08-30T10:43:38.236Z,52.34
2018-08-30T10:44:43.671Z,53.06
2018-08-30T10:45:47.839Z,52.67
2018-08-30T10:46:52.140Z,52.50
2018-08-30T10:47:56.274Z,52.53
2018-08-30T10:49:00.464Z,52.29
2018-08-30T10:50:04.680Z,52.05
2018-08-30T10:51:08.848Z,51.81
2018-08-30T10:52:13.283Z,49.81
2018-08-30T10:53:17.502Z,49.21
2018-08-30T10:54:21.702Z,48.34
2018-08-30T10:55:25.860Z,47.25
2018-08-30T10:56:30.206Z,47.97
2018-08-30T10:57:34.496Z,47.34
2018-08-30T10:58:38.915Z,47.47
2018-08-30T10:59:43.349Z,47.03
2018-08-30T11:00:48.468Z,47.49
2018-08-30T11:01:54.169Z,47.55
2018-08-30T11:02:59.393Z,48.23
2018-08-30T11:04:04.531Z,48.38
2018-08-30T11:05:09.371Z,48.64
2018-08-30T11:06:13.634Z,48.26
2018-08-30T11:07:18.119Z,48.29
2018-08-30T11:08:22.367Z,48.12
2018-08-30T11:09:26.687Z,48.77
2018-08-30T11:10:31.133Z,48.69
2018-08-30T11:11:35.372Z,48.24
2018-08-30T11:12:39.652Z,48.39
2018-08-30T11:13:45.215Z,48.02
2018-08-30T11:14:50.873Z,47.45
2018-08-30T11:15:55.537Z,47.59
2018-08-30T11:16:59.790Z,47.49
2018-08-30T11:18:04.362Z,46.90
2018-08-30T11:19:08.683Z,46.80
2018-08-30T11:20:12.847Z,46.15
2018-08-30T11:21:17.075Z,46.11
2018-08-30T11:22:21.244Z,45.64
2018-08-30T11:23:25.488Z,46.28
2018-08-30T11:24:29.934Z,45.97
2018-08-30T11:25:34.362Z,45.60
2018-08-30T11:26:38.619Z,45.80
2018-08-30T11:27:42.740Z,46.52
2018-08-30T11:28:48.444Z,46.65
2018-08-30T11:29:55.246Z,46.78
2018-08-30T11:31:00.373Z,46.83
2018-08-30T11:32:04.648Z,46.91
2018-08-30T11:33:09.979Z,46.83
2018-08-30T11:34:14.157Z,47.51
2018-08-30T11:35:20.050Z,47.13
2018-08-30T11:36:24.997Z,47.52
2018-08-30T11:37:30.366Z,47.14
2018-08-30T11:38:34.935Z,48.03
2018-08-30T11:39:39.134Z,47.45
2018-08-30T11:40:43.376Z,47.16
2018-08-30T11:41:47.836Z,46.64
2018-08-30T11:42:51.883Z,46.04
2018-08-30T11:43:56.054Z,46.04
2018-08-30T11:45:00.240Z,46.17
2018-08-30T11:46:04.444Z,45.46
2018-08-30T11:47:08.580Z,46.03
2018-08-30T11:48:12.717Z,45.91
2018-08-30T11:49:16.874Z,46.50
2018-08-30T11:50:21.060Z,46.67
2018-08-30T11:51:26.197Z,46.66
2018-08-30T11:52:30.396Z,46.06
2018-08-30T11:53:34.558Z,45.76
2018-08-30T11:54:38.751Z,45.48
2018-08-30T11:55:42.892Z,44.62
2018-08-30T11:56:53.612Z,45.46
2018-08-30T11:57:57.821Z,44.74
2018-08-30T11:59:04.297Z,45.13
2018-08-30T12:00:10.460Z,45.12
2018-08-30T12:01:15.372Z,45.81
2018-08-30T12:02:19.608Z,45.40
2018-08-30T12:03:24.220Z,45.73
2018-08-30T12:04:28.771Z,45.65
2018-08-30T12:05:33.441Z,46.22
2018-08-30T12:06:37.799Z,45.78
2018-08-30T12:07:42.663Z,45.45
2018-08-30T12:08:46.876Z,45.92
2018-08-30T12:09:51.066Z,46.25
2018-08-30T12:10:55.446Z,46.61
2018-08-30T12:12:01.001Z,46.72
2018-08-30T12:13:05.424Z,46.36
2018-08-30T12:14:09.578Z,45.00
2018-08-30T12:15:13.784Z,44.80
2018-08-30T12:16:18.133Z,44.40
2018-08-30T12:17:22.408Z,44.87
2018-08-30T12:18:26.622Z,44.97
2018-08-30T12:19:30.785Z,44.58
2018-08-30T12:20:35.046Z,44.28
2018-08-30T12:21:39.170Z,43.88
2018-08-30T12:22:43.341Z,43.75
2018-08-30T12:23:47.598Z,43.85
2018-08-30T12:24:51.751Z,43.17
2018-08-30T12:25:55.930Z,43.30
2018-08-30T12:27:00.132Z,42.81
2018-08-30T12:28:04.306Z,42.91
2018-08-30T12:29:08.664Z,43.64
2018-08-30T12:30:12.881Z,43.30
2018-08-30T12:31:17.115Z,42.97
2018-08-30T12:32:21.610Z,43.05
2018-08-30T12:33:25.806Z,42.04
2018-08-30T12:34:30.174Z,42.09
2018-08-30T12:35:34.419Z,42.83
2018-08-30T12:36:38.556Z,42.80
2018-08-30T12:37:42.673Z,42.76
2018-08-30T12:38:46.939Z,42.77
2018-08-30T12:39:51.157Z,43.26
2018-08-30T12:40:55.334Z,42.81
2018-08-30T12:41:59.464Z,43.20
2018-08-30T12:43:04.003Z,42.89
2018-08-30T12:44:08.349Z,43.22
2018-08-30T12:45:12.518Z,43.22
2018-08-30T12:46:16.773Z,43.37
2018-08-30T12:47:20.904Z,42.88
2018-08-30T12:48:25.129Z,42.65
2018-08-30T12:49:29.320Z,42.51
2018-08-30T12:50:33.584Z,42.75
2018-08-30T12:51:38.008Z,42.32
2018-08-30T12:52:41.999Z,41.81
2018-08-30T12:53:46.296Z,41.79
2018-08-30T12:54:50.441Z,41.73
2018-08-30T12:55:54.829Z,41.69
2018-08-30T12:57:00.023Z,42.02
2018-08-30T12:58:04.570Z,41.48
2018-08-30T12:59:14.606Z,42.10
2018-08-30T13:00:18.765Z,41.43
2018-08-30T13:01:23.071Z,42.07
2018-08-30T13:02:27.304Z,41.31
2018-08-30T13:03:31.377Z,41.82
2018-08-30T13:04:35.704Z,42.01
2018-08-30T13:05:39.997Z,42.00
2018-08-30T13:06:45.685Z,41.28
2018-08-30T13:07:49.918Z,42.07
2018-08-30T13:08:54.129Z,41.99
2018-08-30T13:09:58.343Z,41.56
2018-08-30T13:11:02.738Z,41.21
2018-08-30T13:12:07.037Z,41.62
2018-08-30T13:13:11.119Z,41.68
2018-08-30T13:14:15.640Z,41.18
2018-08-30T13:15:21.379Z,41.11
2018-08-30T13:16:25.541Z,41.31
2018-08-30T13:17:29.812Z,41.39
2018-08-30T13:18:34.165Z,40.75
2018-08-30T13:19:38.768Z,40.68
2018-08-30T13:20:42.942Z,40.15
2018-08-30T13:21:47.697Z,39.92
2018-08-30T13:22:51.964Z,39.94
2018-08-30T13:23:56.173Z,39.18
2018-08-30T13:25:00.722Z,39.58
2018-08-30T13:26:05.334Z,39.40
2018-08-30T13:27:09.750Z,39.90
2018-08-30T13:28:14.410Z,39.91
2018-08-30T13:29:18.830Z,39.23
2018-08-30T13:30:22.973Z,39.62
2018-08-30T13:31:27.673Z,39.45
2018-08-30T13:32:32.418Z,39.54
2018-08-30T13:33:36.567Z,39.31
2018-08-30T13:34:40.902Z,40.09
2018-08-30T13:35:44.884Z,39.92
2018-08-30T13:36:49.345Z,40.04
2018-08-30T13:37:53.502Z,40.50
2018-08-30T13:38:58.066Z,40.89
2018-08-30T13:40:03.697Z,40.61
2018-08-30T13:41:08.307Z,40.93
2018-08-30T13:42:13.183Z,40.26
2018-08-30T13:43:17.594Z,40.56
2018-08-30T13:44:24.171Z,39.90
2018-08-30T13:45:28.475Z,39.54
2018-08-30T13:46:34.968Z,39.52
2018-08-30T13:47:39.345Z,39.95
2018-08-30T13:48:44.593Z,39.76
2018-08-30T13:49:48.865Z,39.37